Time;durP1;ratioP1;P1;durP2;ratioP2;P2;SDS_P1;SDS_P2;PMS_P1;PMS_P2;Temp;Humidity;BMP_temperature;BMP_pressure;BME280_temperature;BME280_humidity;BME280_pressure;Samples;Min_cycle;Max_cycle;Signal;HPM_P1;HPM_P2
2021/12/13 00:01:28;;;;;;;11.48;6.40;;;;;;;;;;5095346;28;20387;-70
2021/12/13 00:03:57;;;;;;;8.82;5.57;;;;;;;;;;5095142;28;20024;-70
2021/12/13 00:06:26;;;;;;;11.35;6.43;;;;;;;;;;5095056;28;20024;-70
2021/12/13 00:08:53;;;;;;;8.57;4.75;;;;;;;;;;5094700;28;20028;-70
2021/12/13 00:11:21;;;;;;;10.27;5.57;;;;;;;;;;5093661;28;20051;-70
2021/12/13 00:14:02;;;;;;;9.95;5.18;;;;;;;;;;5094911;28;20464;-70
2021/12/13 00:16:30;;;;;;;8.30;4.78;;;;;;;;;;5094603;28;20099;-70
2021/12/13 00:19:01;;;;;;;8.30;4.70;;;;;;;;;;5094717;28;20067;-70
2021/12/13 00:21:38;;;;;;;9.50;5.40;;;;;;;;;;5094785;28;20028;-70
2021/12/13 00:24:07;;;;;;;8.18;5.10;;;;;;;;;;5094325;28;20095;-70
2021/12/13 00:26:36;;;;;;;7.97;4.80;;;;;;;;;;5094660;28;20078;-70
2021/12/13 00:29:13;;;;;;;8.90;4.97;;;;;;;;;;5094607;28;20036;-70
2021/12/13 00:32:00;;;;;;;8.43;4.85;;;;;;;;;;5094470;28;20403;-70
2021/12/13 00:34:49;;;;;;;9.95;5.60;;;;;;;;;;5094655;28;20545;-70
2021/12/13 00:37:25;;;;;;;8.00;4.82;;;;;;;;;;5094365;28;20027;-71
2021/12/13 00:39:54;;;;;;;7.82;4.43;;;;;;;;;;5094808;28;20039;-71
2021/12/13 00:42:22;;;;;;;7.55;4.57;;;;;;;;;;5093104;28;20103;-70
2021/12/13 00:44:50;;;;;;;9.52;4.85;;;;;;;;;;5092628;28;20028;-70
2021/12/13 00:47:18;;;;;;;11.35;5.13;;;;;;;;;;5094217;28;20020;-70
2021/12/13 00:49:48;;;;;;;6.55;4.10;;;;;;;;;;5094444;28;20472;-70
2021/12/13 00:52:16;;;;;;;11.63;5.00;;;;;;;;;;5093872;28;20032;-70
2021/12/13 00:54:43;;;;;;;9.55;4.30;;;;;;;;;;5092960;28;20484;-70
2021/12/13 00:57:19;;;;;;;7.93;4.03;;;;;;;;;;5093372;28;20107;-70
2021/12/13 00:59:54;;;;;;;11.20;5.05;;;;;;;;;;5093704;28;20056;-70
2021/12/13 01:02:32;;;;;;;9.35;4.18;;;;;;;;;;5094451;28;20107;-70
2021/12/13 01:05:04;;;;;;;9.23;5.13;;;;;;;;;;5093858;28;20051;-71
2021/12/13 01:07:33;;;;;;;10.95;4.43;;;;;;;;;;5094297;28;20016;-70
2021/12/13 01:09:59;;;;;;;7.70;3.95;;;;;;;;;;5093983;28;20074;-70
2021/12/13 01:12:26;;;;;;;11.13;4.78;;;;;;;;;;5092243;28;20047;-70
2021/12/13 01:15:01;;;;;;;8.00;3.80;;;;;;;;;;5093972;28;20032;-70
2021/12/13 01:17:58;;;;;;;6.65;3.78;;;;;;;;;;5093803;28;20028;-70
2021/12/13 01:20:41;;;;;;;7.03;3.38;;;;;;;;;;5093257;28;20111;-70
2021/12/13 01:23:27;;;;;;;9.52;4.05;;;;;;;;;;5094060;28;20020;-70
2021/12/13 01:26:02;;;;;;;6.88;3.90;;;;;;;;;;5093648;28;20067;-70
2021/12/13 01:28:34;;;;;;;7.07;3.75;;;;;;;;;;5093962;28;20429;-70
2021/12/13 01:31:03;;;;;;;7.88;3.85;;;;;;;;;;5094282;28;20028;-70
2021/12/13 01:33:33;;;;;;;7.05;3.55;;;;;;;;;;5093224;28;20020;-70
2021/12/13 01:36:01;;;;;;;8.38;4.50;;;;;;;;;;5093892;28;20511;-70
2021/12/13 01:38:34;;;;;;;5.53;3.30;;;;;;;;;;5093812;28;20046;-70
2021/12/13 01:41:06;;;;;;;5.78;3.30;;;;;;;;;;5091831;28;20039;-70
2021/12/13 01:43:33;;;;;;;5.38;3.17;;;;;;;;;;5093826;28;20472;-70
2021/12/13 01:45:59;;;;;;;5.82;3.33;;;;;;;;;;5093507;28;20063;-70
2021/12/13 01:48:36;;;;;;;6.03;3.30;;;;;;;;;;5093131;28;20488;-70
2021/12/13 01:51:06;;;;;;;6.38;3.70;;;;;;;;;;5093611;28;20035;-70
2021/12/13 01:53:45;;;;;;;6.80;3.55;;;;;;;;;;5093643;28;20062;-70
2021/12/13 01:56:55;;;;;;;4.50;2.80;;;;;;;;;;5093002;28;20024;-70
2021/12/13 02:02:01;;;;;;;6.78;2.92;;;;;;;;;;5092998;28;20024;-70
2021/12/13 02:04:28;;;;;;;8.10;3.80;;;;;;;;;;5093465;28;20020;-70
2021/12/13 02:07:00;;;;;;;7.28;3.70;;;;;;;;;;5093325;28;20028;-70
2021/12/13 02:09:28;;;;;;;7.95;3.60;;;;;;;;;;5096141;28;20380;-70
2021/12/13 02:11:56;;;;;;;7.25;3.35;;;;;;;;;;5097533;28;20413;-70
2021/12/13 02:14:26;;;;;;;5.30;3.03;;;;;;;;;;5097255;28;20028;-70
2021/12/13 02:16:56;;;;;;;4.97;2.72;;;;;;;;;;5097310;28;20017;-70
2021/12/13 02:19:23;;;;;;;5.45;2.97;;;;;;;;;;5097011;28;20082;-70
2021/12/13 02:21:51;;;;;;;5.80;3.17;;;;;;;;;;5097141;28;20089;-70
2021/12/13 02:24:17;;;;;;;4.10;2.55;;;;;;;;;;5096740;28;20016;-70
2021/12/13 02:26:46;;;;;;;4.25;2.47;;;;;;;;;;5097071;28;20025;-70
2021/12/13 02:29:21;;;;;;;5.07;2.85;;;;;;;;;;5096665;28;20048;-70
2021/12/13 02:31:48;;;;;;;3.92;2.33;;;;;;;;;;5096882;28;20028;-70
2021/12/13 02:34:16;;;;;;;9.95;3.17;;;;;;;;;;5096971;28;20016;-70
2021/12/13 02:36:43;;;;;;;4.68;2.65;;;;;;;;;;5096493;28;20089;-70
2021/12/13 02:39:11;;;;;;;7.35;3.15;;;;;;;;;;5096697;28;20024;-70
2021/12/13 02:41:37;;;;;;;4.75;2.55;;;;;;;;;;5096775;28;20031;-70
2021/12/13 02:44:23;;;;;;;5.97;3.20;;;;;;;;;;5096328;28;20016;-70
2021/12/13 02:46:50;;;;;;;6.80;2.75;;;;;;;;;;5096622;28;20502;-70
2021/12/13 02:49:17;;;;;;;4.22;2.63;;;;;;;;;;5096627;28;20456;-70
2021/12/13 02:51:46;;;;;;;4.90;2.55;;;;;;;;;;5096126;28;20028;-69
2021/12/13 02:54:16;;;;;;;4.10;2.33;;;;;;;;;;5096462;28;20028;-70
2021/12/13 02:56:47;;;;;;;6.00;3.00;;;;;;;;;;5096805;28;20024;-70
2021/12/13 02:59:14;;;;;;;7.13;3.08;;;;;;;;;;5095991;28;20078;-70
2021/12/13 03:01:44;;;;;;;6.78;3.35;;;;;;;;;;5096374;28;20032;-70
2021/12/13 03:04:12;;;;;;;4.78;2.60;;;;;;;;;;5096385;28;20480;-70
2021/12/13 03:06:41;;;;;;;4.43;2.22;;;;;;;;;;5095803;28;20103;-70
2021/12/13 03:09:10;;;;;;;4.57;2.47;;;;;;;;;;5096239;28;20016;-70
2021/12/13 03:11:37;;;;;;;4.63;2.60;;;;;;;;;;5095894;28;20035;-70
2021/12/13 03:14:03;;;;;;;5.40;2.95;;;;;;;;;;5094861;28;20052;-70
2021/12/13 03:16:32;;;;;;;3.85;2.15;;;;;;;;;;5096085;28;20029;-70
2021/12/13 03:18:58;;;;;;;5.82;3.15;;;;;;;;;;5095358;28;20081;-70
2021/12/13 03:21:27;;;;;;;4.13;2.40;;;;;;;;;;5095078;28;20036;-70
2021/12/13 03:24:01;;;;;;;4.90;3.00;;;;;;;;;;5095909;28;20026;-70
2021/12/13 03:26:52;;;;;;;5.82;2.83;;;;;;;;;;5095721;28;20033;-70
2021/12/13 03:29:28;;;;;;;4.75;2.40;;;;;;;;;;5058480;28;20384;-70
2021/12/13 03:31:58;;;;;;;3.60;2.35;;;;;;;;;;5095923;28;20034;-70
2021/12/13 03:34:35;;;;;;;6.50;2.70;;;;;;;;;;5095381;28;20027;-70
2021/12/13 03:37:04;;;;;;;6.03;3.08;;;;;;;;;;5096085;28;20022;-70
2021/12/13 03:39:35;;;;;;;6.22;2.78;;;;;;;;;;5095405;28;20032;-70
2021/12/13 03:42:03;;;;;;;6.00;3.15;;;;;;;;;;5095594;28;20109;-70
2021/12/13 03:44:32;;;;;;;8.90;3.75;;;;;;;;;;5095583;28;20130;-70
2021/12/13 03:47:03;;;;;;;5.65;3.05;;;;;;;;;;5095173;28;20021;-70
2021/12/13 03:49:29;;;;;;;8.98;4.38;;;;;;;;;;5095802;28;20016;-70
2021/12/13 03:51:58;;;;;;;8.18;4.28;;;;;;;;;;5095416;28;20047;-70
2021/12/13 03:54:25;;;;;;;8.00;3.50;;;;;;;;;;5094978;28;20028;-70
2021/12/13 03:56:52;;;;;;;6.45;3.47;;;;;;;;;;5095335;28;20527;-70
2021/12/13 03:59:22;;;;;;;7.75;4.85;;;;;;;;;;5093973;28;20377;-70
2021/12/13 04:01:55;;;;;;;9.20;3.97;;;;;;;;;;5095025;28;20024;-70
2021/12/13 04:04:23;;;;;;;6.70;3.50;;;;;;;;;;5095236;28;20024;-70
2021/12/13 04:06:51;;;;;;;4.80;3.22;;;;;;;;;;5095227;28;20263;-70
2021/12/13 04:09:18;;;;;;;6.65;3.42;;;;;;;;;;5094664;28;20017;-70
2021/12/13 04:11:46;;;;;;;6.55;2.97;;;;;;;;;;5095012;28;20027;-70
2021/12/13 04:14:18;;;;;;;6.53;3.53;;;;;;;;;;5094930;28;20072;-70
2021/12/13 04:17:02;;;;;;;5.53;3.03;;;;;;;;;;5094611;28;20016;-70
2021/12/13 04:19:38;;;;;;;7.78;4.00;;;;;;;;;;5094699;28;20040;-70
2021/12/13 04:22:05;;;;;;;5.97;3.03;;;;;;;;;;5094530;28;20491;-70
2021/12/13 04:24:33;;;;;;;7.80;3.67;;;;;;;;;;5094809;28;20109;-70
2021/12/13 04:27:01;;;;;;;6.90;3.63;;;;;;;;;;5095107;28;20020;-70
2021/12/13 04:29:32;;;;;;;7.05;3.55;;;;;;;;;;5094259;28;20373;-70
2021/12/13 04:31:59;;;;;;;6.13;3.10;;;;;;;;;;5094617;28;20024;-70
2021/12/13 04:34:26;;;;;;;4.53;2.45;;;;;;;;;;5094552;28;20048;-70
2021/12/13 04:36:58;;;;;;;5.35;2.92;;;;;;;;;;5094104;28;20384;-70
2021/12/13 04:39:28;;;;;;;8.85;3.40;;;;;;;;;;5094545;28;20490;-70
2021/12/13 04:41:56;;;;;;;6.50;3.22;;;;;;;;;;5094607;28;20042;-70
2021/12/13 04:44:22;;;;;;;3.47;2.22;;;;;;;;;;5093964;28;20019;-70
2021/12/13 04:46:51;;;;;;;5.03;2.63;;;;;;;;;;5094424;28;20024;-70
2021/12/13 04:49:19;;;;;;;6.30;3.20;;;;;;;;;;5094384;28;20043;-70
2021/12/13 04:51:53;;;;;;;7.53;3.20;;;;;;;;;;5093889;28;20472;-70
2021/12/13 04:54:20;;;;;;;5.07;2.95;;;;;;;;;;5094723;28;20028;-70
2021/12/13 04:56:48;;;;;;;6.40;3.65;;;;;;;;;;5094156;28;20027;-70
2021/12/13 04:59:15;;;;;;;5.40;3.05;;;;;;;;;;5093797;28;20458;-70
2021/12/13 05:01:44;;;;;;;7.68;3.45;;;;;;;;;;5094377;28;20028;-70
2021/12/13 05:04:11;;;;;;;6.32;3.22;;;;;;;;;;5093687;28;20389;-72
2021/12/13 05:06:39;;;;;;;7.63;3.35;;;;;;;;;;5094020;28;20028;-71
2021/12/13 05:09:09;;;;;;;9.43;4.82;;;;;;;;;;5094016;28;20106;-72
2021/12/13 05:11:38;;;;;;;6.43;3.50;;;;;;;;;;5093800;28;20020;-71
2021/12/13 05:14:05;;;;;;;8.48;3.55;;;;;;;;;;5094103;28;20500;-71
2021/12/13 05:16:43;;;;;;;5.82;3.42;;;;;;;;;;5093956;28;20028;-72
2021/12/13 05:19:11;;;;;;;9.50;4.50;;;;;;;;;;5093167;28;20040;-71
2021/12/13 05:21:39;;;;;;;7.63;3.80;;;;;;;;;;5093810;28;20058;-72
2021/12/13 05:24:11;;;;;;;9.18;4.90;;;;;;;;;;5092524;28;20358;-72
2021/12/13 05:27:00;;;;;;;8.68;4.30;;;;;;;;;;5093411;28;20028;-73
2021/12/13 05:29:26;;;;;;;8.27;4.55;;;;;;;;;;5085755;28;20036;-71
2021/12/13 05:31:53;;;;;;;10.18;4.97;;;;;;;;;;5093705;28;20063;-70
2021/12/13 05:34:20;;;;;;;8.60;4.63;;;;;;;;;;5093215;28;20028;-71
2021/12/13 05:36:54;;;;;;;8.80;4.50;;;;;;;;;;5093752;28;20089;-71
2021/12/13 05:39:20;;;;;;;9.25;4.00;;;;;;;;;;5093379;28;20063;-71
2021/12/13 05:41:51;;;;;;;9.68;4.43;;;;;;;;;;5093809;28;20027;-70
2021/12/13 05:44:24;;;;;;;8.02;4.15;;;;;;;;;;5093018;28;20020;-71
2021/12/13 05:46:50;;;;;;;8.50;4.17;;;;;;;;;;5093320;28;20117;-70
2021/12/13 05:49:19;;;;;;;9.10;4.78;;;;;;;;;;5092268;28;20111;-72
2021/12/13 05:51:47;;;;;;;10.38;4.80;;;;;;;;;;5093498;28;20031;-70
2021/12/13 05:54:13;;;;;;;11.68;4.00;;;;;;;;;;5093190;28;20020;-69
2021/12/13 05:56:47;;;;;;;7.80;4.35;;;;;;;;;;5093304;28;20038;-69
2021/12/13 05:59:28;;;;;;;8.63;4.18;;;;;;;;;;5093326;28;20024;-69
2021/12/13 06:01:57;;;;;;;8.57;4.30;;;;;;;;;;5092913;28;20384;-69
2021/12/13 06:04:43;;;;;;;9.52;4.85;;;;;;;;;;5091248;28;20111;-65
2021/12/13 06:07:18;;;;;;;8.73;4.60;;;;;;;;;;5092558;28;20473;-66
2021/12/13 06:09:49;;;;;;;10.57;4.75;;;;;;;;;;5093105;28;20028;-71
2021/12/13 06:12:24;;;;;;;10.23;5.07;;;;;;;;;;5086570;28;20036;-66
2021/12/13 06:14:50;;;;;;;8.90;4.88;;;;;;;;;;5082163;28;20016;-65
2021/12/13 06:17:27;;;;;;;11.32;5.63;;;;;;;;;;5092285;28;20080;-66
2021/12/13 06:20:08;;;;;;;10.80;5.85;;;;;;;;;;5091826;28;20040;-67
2021/12/13 06:22:35;;;;;;;9.20;5.50;;;;;;;;;;5091483;28;20020;-68
2021/12/13 06:25:05;;;;;;;9.05;4.85;;;;;;;;;;5090955;28;20429;-68
2021/12/13 06:27:42;;;;;;;9.73;5.63;;;;;;;;;;5090981;28;20027;-69
2021/12/13 06:30:19;;;;;;;9.65;4.47;;;;;;;;;;5090301;28;20031;-69
2021/12/13 06:33:12;;;;;;;10.82;5.70;;;;;;;;;;5088227;28;20353;-68
2021/12/13 06:35:44;;;;;;;15.20;8.07;;;;;;;;;;5071660;28;20063;-67
2021/12/13 06:38:20;;;;;;;9.13;4.73;;;;;;;;;;5086221;28;20024;-66
2021/12/13 06:40:49;;;;;;;10.50;5.15;;;;;;;;;;5089206;28;20626;-67
2021/12/13 06:43:26;;;;;;;9.95;5.00;;;;;;;;;;5077838;28;20492;-67
2021/12/13 06:45:52;;;;;;;6.38;4.00;;;;;;;;;;5071629;28;20032;-68
2021/12/13 06:48:19;;;;;;;13.35;6.55;;;;;;;;;;5071549;28;20092;-68
2021/12/13 06:50:47;;;;;;;9.93;5.90;;;;;;;;;;5071627;28;20046;-68
2021/12/13 06:53:19;;;;;;;12.70;7.93;;;;;;;;;;5070914;28;20025;-69
2021/12/13 06:55:45;;;;;;;10.27;5.47;;;;;;;;;;5071979;28;20055;-69
2021/12/13 06:58:14;;;;;;;10.85;6.53;;;;;;;;;;5073359;28;20028;-69
2021/12/13 07:00:40;;;;;;;14.88;7.40;;;;;;;;;;5073999;28;20040;-68
2021/12/13 07:03:08;;;;;;;12.63;6.03;;;;;;;;;;5075383;28;20021;-69
2021/12/13 07:05:38;;;;;;;13.13;6.30;;;;;;;;;;5075228;28;20101;-70
2021/12/13 07:08:09;;;;;;;18.17;8.88;;;;;;;;;;5075607;28;20027;-71
2021/12/13 07:10:40;;;;;;;14.38;7.38;;;;;;;;;;5074190;28;20032;-72
2021/12/13 07:13:11;;;;;;;13.95;5.70;;;;;;;;;;5075640;28;20020;-70
2021/12/13 07:15:37;;;;;;;26.20;10.20;;;;;;;;;;5075299;28;20078;-68
2021/12/13 07:18:15;;;;;;;14.95;7.38;;;;;;;;;;5074951;28;20552;-69
2021/12/13 07:20:58;;;;;;;11.20;5.68;;;;;;;;;;5075590;28;20048;-67
2021/12/13 07:23:25;;;;;;;14.32;7.22;;;;;;;;;;5070515;28;20025;-67
2021/12/13 07:25:53;;;;;;;14.65;6.43;;;;;;;;;;5074197;28;20370;-67
2021/12/13 07:28:30;;;;;;;8.90;5.20;;;;;;;;;;5081149;28;20012;-68
2021/12/13 07:30:57;;;;;;;12.02;6.45;;;;;;;;;;5095596;28;20414;-68
2021/12/13 07:33:34;;;;;;;18.33;7.88;;;;;;;;;;5094808;28;20074;-70
2021/12/13 07:36:13;;;;;;;15.15;6.53;;;;;;;;;;5087314;28;20074;-67
2021/12/13 07:38:47;;;;;;;23.65;9.65;;;;;;;;;;5094262;28;20055;-68
2021/12/13 07:41:13;;;;;;;16.08;7.70;;;;;;;;;;5093279;28;20027;-68
2021/12/13 07:43:45;;;;;;;16.25;8.63;;;;;;;;;;5094490;28;20020;-67
2021/12/13 07:46:20;;;;;;;19.20;8.65;;;;;;;;;;5094265;28;20024;-69
2021/12/13 07:48:47;;;;;;;13.15;6.82;;;;;;;;;;5094806;28;20036;-68
2021/12/13 07:51:17;;;;;;;12.93;6.13;;;;;;;;;;5092716;28;20051;-67
2021/12/13 07:53:49;;;;;;;12.75;7.03;;;;;;;;;;5094125;28;20016;-69
2021/12/13 07:56:23;;;;;;;12.95;7.20;;;;;;;;;;5094201;28;20028;-67
2021/12/13 07:58:51;;;;;;;8.63;4.65;;;;;;;;;;5093952;28;20056;-69
2021/12/13 08:01:23;;;;;;;11.38;5.80;;;;;;;;;;5093563;28;20115;-69
2021/12/13 08:03:55;;;;;;;8.18;4.88;;;;;;;;;;5094247;28;20024;-68
2021/12/13 08:06:23;;;;;;;11.07;5.43;;;;;;;;;;5090566;28;20107;-69
2021/12/13 08:08:51;;;;;;;11.43;5.30;;;;;;;;;;5093665;28;20023;-69
2021/12/13 08:11:18;;;;;;;9.27;5.30;;;;;;;;;;5092540;28;20480;-68
2021/12/13 08:13:55;;;;;;;10.93;5.72;;;;;;;;;;5093883;28;20021;-69
2021/12/13 08:16:28;;;;;;;8.68;5.18;;;;;;;;;;5089438;28;20046;-69
2021/12/13 08:19:03;;;;;;;13.80;7.88;;;;;;;;;;5092907;28;20071;-69
2021/12/13 08:21:29;;;;;;;15.30;8.82;;;;;;;;;;5092576;28;20395;-69
2021/12/13 08:23:57;;;;;;;11.93;6.75;;;;;;;;;;5092247;28;20016;-70
2021/12/13 08:26:26;;;;;;;12.85;6.82;;;;;;;;;;5088847;28;20082;-69
2021/12/13 08:28:54;;;;;;;15.40;8.00;;;;;;;;;;5086532;28;20483;-69
2021/12/13 08:31:25;;;;;;;10.13;6.30;;;;;;;;;;5090868;28;20538;-66
2021/12/13 08:33:53;;;;;;;12.48;6.60;;;;;;;;;;5091748;28;20082;-68
2021/12/13 08:36:30;;;;;;;12.82;6.88;;;;;;;;;;5092039;28;20032;-68
2021/12/13 08:39:09;;;;;;;11.88;6.55;;;;;;;;;;5091996;28;20024;-68
2021/12/13 08:41:39;;;;;;;11.73;6.55;;;;;;;;;;5060713;27;20053;-67
2021/12/13 08:44:15;;;;;;;11.00;4.93;;;;;;;;;;5027960;28;20430;-67
2021/12/13 08:46:41;;;;;;;13.25;8.60;;;;;;;;;;5033572;28;20097;-70
2021/12/13 08:49:17;;;;;;;13.77;7.90;;;;;;;;;;5026853;28;20075;-68
2021/12/13 08:51:51;;;;;;;16.17;7.85;;;;;;;;;;5033056;28;20021;-69
2021/12/13 08:54:17;;;;;;;17.67;7.78;;;;;;;;;;5032996;28;20032;-67
2021/12/13 08:56:46;;;;;;;11.90;6.15;;;;;;;;;;5031047;28;20021;-69
2021/12/13 08:59:23;;;;;;;12.98;7.13;;;;;;;;;;5032279;28;20029;-68
2021/12/13 09:01:54;;;;;;;15.35;8.98;;;;;;;;;;5021689;28;20095;-68
2021/12/13 09:04:31;;;;;;;8.70;5.13;;;;;;;;;;5031049;28;20426;-68
2021/12/13 09:06:59;;;;;;;11.57;6.60;;;;;;;;;;5031628;28;20079;-69
2021/12/13 09:09:26;;;;;;;9.65;5.63;;;;;;;;;;5032846;28;20470;-69
2021/12/13 09:11:59;;;;;;;12.40;6.68;;;;;;;;;;5031557;28;20048;-68
2021/12/13 09:14:31;;;;;;;22.08;11.68;;;;;;;;;;5032968;28;20099;-69
2021/12/13 09:17:14;;;;;;;25.65;14.02;;;;;;;;;;5032942;28;20026;-67
2021/12/13 09:19:50;;;;;;;15.98;8.77;;;;;;;;;;5031799;28;20045;-68
2021/12/13 09:22:25;;;;;;;16.73;8.38;;;;;;;;;;5030664;28;20652;-68
2021/12/13 09:24:51;;;;;;;11.45;6.22;;;;;;;;;;5030494;28;20097;-68
2021/12/13 09:27:26;;;;;;;11.13;7.72;;;;;;;;;;5030408;28;20095;-69
2021/12/13 09:29:58;;;;;;;12.70;6.82;;;;;;;;;;5029927;28;20060;-68
2021/12/13 09:32:30;;;;;;;9.20;5.65;;;;;;;;;;5029155;28;20029;-69
2021/12/13 09:35:16;;;;;;;11.85;5.68;;;;;;;;;;5029308;28;20032;-70
2021/12/13 09:37:43;;;;;;;15.38;8.60;;;;;;;;;;5030681;28;20068;-67
2021/12/13 09:40:09;;;;;;;14.90;7.25;;;;;;;;;;5032083;28;20034;-68
2021/12/13 09:42:49;;;;;;;10.63;5.78;;;;;;;;;;5032733;28;20093;-66
2021/12/13 09:45:25;;;;;;;17.63;9.25;;;;;;;;;;5032333;28;20029;-67
2021/12/13 09:47:51;;;;;;;15.70;9.55;;;;;;;;;;5032700;28;20017;-67
2021/12/13 09:50:20;;;;;;;11.98;7.10;;;;;;;;;;5032514;28;20449;-67
2021/12/13 09:53:00;;;;;;;10.55;5.68;;;;;;;;;;5031772;28;20080;-67
2021/12/13 09:55:32;;;;;;;17.25;8.60;;;;;;;;;;5031657;28;20025;-67
2021/12/13 09:57:58;;;;;;;10.25;6.10;;;;;;;;;;5030728;28;20017;-68
2021/12/13 10:00:31;;;;;;;16.60;8.95;;;;;;;;;;5031590;28;20064;-68
2021/12/13 10:03:01;;;;;;;13.53;7.53;;;;;;;;;;5031833;28;20017;-69
2021/12/13 10:05:33;;;;;;;12.20;6.53;;;;;;;;;;5024666;28;20053;-65
2021/12/13 10:08:05;;;;;;;13.63;7.80;;;;;;;;;;5032033;28;20014;-67
2021/12/13 10:10:39;;;;;;;12.18;6.57;;;;;;;;;;5031763;28;20022;-67
2021/12/13 10:13:10;;;;;;;14.98;7.43;;;;;;;;;;5029350;28;20068;-67
2021/12/13 10:15:45;;;;;;;11.55;6.25;;;;;;;;;;5031971;28;20390;-67
2021/12/13 10:18:16;;;;;;;14.35;7.20;;;;;;;;;;5032333;28;20509;-66
2021/12/13 10:20:46;;;;;;;13.90;8.00;;;;;;;;;;5030085;28;20065;-66
2021/12/13 10:23:14;;;;;;;9.82;6.60;;;;;;;;;;5023282;28;20033;-66
2021/12/13 10:25:42;;;;;;;12.18;7.25;;;;;;;;;;5010451;28;20122;-68
2021/12/13 10:28:10;;;;;;;12.85;7.35;;;;;;;;;;5012111;28;20390;-66
2021/12/13 10:30:38;;;;;;;13.95;8.70;;;;;;;;;;5016414;28;20441;-66
2021/12/13 10:33:07;;;;;;;22.67;11.95;;;;;;;;;;5036331;28;20037;-65
2021/12/13 10:35:41;;;;;;;12.73;7.20;;;;;;;;;;5035489;28;20047;-66
2021/12/13 10:38:09;;;;;;;15.13;8.63;;;;;;;;;;5036145;28;20022;-66
2021/12/13 10:40:41;;;;;;;15.75;9.05;;;;;;;;;;5033997;28;20083;-66
2021/12/13 10:43:10;;;;;;;12.40;6.72;;;;;;;;;;5035896;28;20014;-65
2021/12/13 10:45:39;;;;;;;18.38;8.60;;;;;;;;;;5036127;28;20025;-66
2021/12/13 10:48:08;;;;;;;12.73;7.28;;;;;;;;;;5036163;28;20037;-69
2021/12/13 10:50:41;;;;;;;12.60;7.68;;;;;;;;;;5035655;28;20025;-67
2021/12/13 10:53:09;;;;;;;14.32;7.75;;;;;;;;;;5035995;28;20080;-67
2021/12/13 10:55:38;;;;;;;18.50;8.00;;;;;;;;;;5035982;28;20087;-69
2021/12/13 10:58:04;;;;;;;17.00;10.02;;;;;;;;;;5035692;28;20029;-69
2021/12/13 11:00:36;;;;;;;13.90;8.95;;;;;;;;;;5034469;28;20042;-67
2021/12/13 11:03:07;;;;;;;13.05;7.55;;;;;;;;;;5035826;28;20083;-68
2021/12/13 11:05:34;;;;;;;15.73;8.50;;;;;;;;;;5034773;28;20382;-66
2021/12/13 11:08:01;;;;;;;13.23;8.43;;;;;;;;;;5035879;28;20030;-69
2021/12/13 11:10:31;;;;;;;15.43;9.00;;;;;;;;;;5034858;28;20026;-65
2021/12/13 11:13:00;;;;;;;17.20;8.93;;;;;;;;;;5035094;28;20547;-65
2021/12/13 11:15:34;;;;;;;19.00;10.77;;;;;;;;;;5035252;28;20045;-65
2021/12/13 11:18:01;;;;;;;21.52;11.65;;;;;;;;;;5035231;28;20501;-66
2021/12/13 11:20:33;;;;;;;19.10;10.15;;;;;;;;;;5035860;28;20496;-65
2021/12/13 11:23:00;;;;;;;30.08;11.50;;;;;;;;;;5035645;28;20021;-65
2021/12/13 11:25:30;;;;;;;13.25;8.75;;;;;;;;;;5034563;28;20112;-66
2021/12/13 11:27:57;;;;;;;11.60;5.80;;;;;;;;;;5035005;28;20032;-65
2021/12/13 11:30:25;;;;;;;13.20;6.85;;;;;;;;;;5034444;28;20026;-66
2021/12/13 11:32:57;;;;;;;10.40;6.13;;;;;;;;;;5035216;28;20022;-68
2021/12/13 11:35:42;;;;;;;13.65;7.65;;;;;;;;;;5035344;28;20026;-69
2021/12/13 11:38:27;;;;;;;16.50;8.55;;;;;;;;;;5031818;28;20030;-67
2021/12/13 11:41:11;;;;;;;11.70;7.63;;;;;;;;;;5032473;28;20482;-67
2021/12/13 11:43:56;;;;;;;25.02;13.40;;;;;;;;;;5033215;28;20092;-66
2021/12/13 11:46:29;;;;;;;11.57;7.55;;;;;;;;;;5026615;28;20026;-67
2021/12/13 11:49:33;;;;;;;21.45;10.65;;;;;;;;;;5032249;28;20063;-68
2021/12/13 11:52:00;;;;;;;13.98;8.80;;;;;;;;;;5029621;28;20060;-68
2021/12/13 11:54:26;;;;;;;20.25;9.65;;;;;;;;;;5031860;28;20128;-67
2021/12/13 11:57:10;;;;;;;15.85;9.02;;;;;;;;;;5033444;28;20037;-68
2021/12/13 11:59:37;;;;;;;16.20;9.77;;;;;;;;;;5033042;28;20029;-68
2021/12/13 12:02:10;;;;;;;18.02;10.57;;;;;;;;;;5032444;28;20049;-69
2021/12/13 12:04:54;;;;;;;16.30;9.07;;;;;;;;;;5033870;28;20105;-69
2021/12/13 12:07:25;;;;;;;19.83;10.57;;;;;;;;;;5033408;28;20048;-69
2021/12/13 12:10:10;;;;;;;16.27;9.77;;;;;;;;;;5033884;28;20433;-68
2021/12/13 12:12:55;;;;;;;22.27;12.55;;;;;;;;;;5033254;28;20021;-68
2021/12/13 12:15:23;;;;;;;15.95;8.77;;;;;;;;;;5033927;28;20022;-68
2021/12/13 12:17:50;;;;;;;21.83;10.95;;;;;;;;;;5034003;28;20026;-67
2021/12/13 12:20:18;;;;;;;22.00;10.23;;;;;;;;;;5033911;28;20056;-68
2021/12/13 12:22:52;;;;;;;16.27;10.20;;;;;;;;;;5034226;28;20104;-69
2021/12/13 12:25:20;;;;;;;16.40;8.98;;;;;;;;;;5033500;28;20060;-69
2021/12/13 12:27:47;;;;;;;12.75;7.53;;;;;;;;;;5033584;28;20474;-69
2021/12/13 12:30:20;;;;;;;14.80;7.50;;;;;;;;;;5034316;28;20034;-69
2021/12/13 12:32:54;;;;;;;16.85;9.20;;;;;;;;;;5029660;28;20024;-67
2021/12/13 12:35:22;;;;;;;18.15;9.13;;;;;;;;;;5033995;28;20034;-69
2021/12/13 12:37:48;;;;;;;16.92;9.30;;;;;;;;;;5034068;28;20025;-69
2021/12/13 12:40:24;;;;;;;18.60;10.20;;;;;;;;;;5034049;28;20033;-69
2021/12/13 12:42:52;;;;;;;19.85;12.70;;;;;;;;;;5033870;28;20030;-68
2021/12/13 12:45:24;;;;;;;13.40;7.65;;;;;;;;;;5034230;28;20432;-68
2021/12/13 12:47:50;;;;;;;18.08;10.02;;;;;;;;;;5034052;28;20037;-68
2021/12/13 12:50:18;;;;;;;16.40;8.43;;;;;;;;;;5030006;28;20096;-69
2021/12/13 12:52:48;;;;;;;17.60;8.98;;;;;;;;;;5033649;28;20018;-68
2021/12/13 12:55:16;;;;;;;17.40;9.77;;;;;;;;;;5033710;28;20101;-69
2021/12/13 12:57:43;;;;;;;16.67;9.60;;;;;;;;;;5033745;28;20397;-69
2021/12/13 13:00:09;;;;;;;19.83;10.30;;;;;;;;;;5026094;28;20036;-69
2021/12/13 13:02:36;;;;;;;17.23;9.30;;;;;;;;;;5032198;28;20033;-69
2021/12/13 13:05:04;;;;;;;11.25;6.28;;;;;;;;;;5033168;28;20481;-68
2021/12/13 13:07:35;;;;;;;14.77;8.32;;;;;;;;;;5032780;28;20033;-67
2021/12/13 13:12:51;;;;;;;15.35;8.52;;;;;;;;;;5033207;28;20025;-70
2021/12/13 13:15:17;;;;;;;11.75;6.40;;;;;;;;;;5032767;28;20469;-72
2021/12/13 13:17:45;;;;;;;28.02;13.38;;;;;;;;;;5032552;28;20532;-70
2021/12/13 13:20:15;;;;;;;14.13;9.35;;;;;;;;;;5032845;28;20113;-70
2021/12/13 13:22:45;;;;;;;13.48;8.52;;;;;;;;;;5032843;28;20434;-70
2021/12/13 13:25:19;;;;;;;15.48;10.23;;;;;;;;;;5032679;28;20021;-68
2021/12/13 13:27:46;;;;;;;20.23;10.35;;;;;;;;;;5033116;28;20049;-68
2021/12/13 13:30:16;;;;;;;16.85;9.43;;;;;;;;;;5032443;28;20104;-69
2021/12/13 13:32:43;;;;;;;13.23;7.75;;;;;;;;;;5032558;28;20030;-69
2021/12/13 13:35:09;;;;;;;17.23;9.02;;;;;;;;;;5033161;28;20022;-72
2021/12/13 13:37:38;;;;;;;13.63;8.48;;;;;;;;;;5032590;28;20385;-71
2021/12/13 13:40:07;;;;;;;16.77;9.27;;;;;;;;;;5032930;28;20054;-71
2021/12/13 13:42:35;;;;;;;16.80;8.93;;;;;;;;;;5031879;28;20128;-70
2021/12/13 13:45:04;;;;;;;12.73;7.28;;;;;;;;;;5031897;28;20430;-68
2021/12/13 13:47:37;;;;;;;19.55;11.27;;;;;;;;;;5031556;28;20049;-68
2021/12/13 13:50:19;;;;;;;15.88;9.77;;;;;;;;;;5029770;28;20029;-70
2021/12/13 13:52:46;;;;;;;18.90;11.73;;;;;;;;;;5032385;28;20087;-69
2021/12/13 13:55:26;;;;;;;23.00;12.98;;;;;;;;;;5033036;28;20033;-69
2021/12/13 13:57:54;;;;;;;17.02;10.82;;;;;;;;;;5032903;28;20390;-71
2021/12/13 14:00:21;;;;;;;14.80;8.85;;;;;;;;;;5032151;28;20053;-72
2021/12/13 14:02:48;;;;;;;23.33;9.48;;;;;;;;;;5031052;28;20022;-69
2021/12/13 14:05:14;;;;;;;24.55;13.82;;;;;;;;;;5033861;28;20048;-70
2021/12/13 14:07:42;;;;;;;24.27;11.00;;;;;;;;;;5034879;28;20017;-71
2021/12/13 14:10:08;;;;;;;22.73;10.50;;;;;;;;;;5035433;28;20033;-69
2021/12/13 14:12:37;;;;;;;25.95;10.85;;;;;;;;;;5036030;28;20013;-68
2021/12/13 14:15:12;;;;;;;39.38;18.08;;;;;;;;;;5035970;28;20021;-68
2021/12/13 14:17:53;;;;;;;17.73;10.98;;;;;;;;;;5036655;28;20025;-73
2021/12/13 14:20:22;;;;;;;35.28;15.68;;;;;;;;;;5036558;28;20037;-71
2021/12/13 14:22:50;;;;;;;31.77;16.73;;;;;;;;;;5037151;28;20032;-71
2021/12/13 14:25:35;;;;;;;21.38;12.88;;;;;;;;;;5036727;28;20025;-71
2021/12/13 14:28:02;;;;;;;16.17;9.75;;;;;;;;;;5036642;28;20029;-71
2021/12/13 14:30:31;;;;;;;16.88;9.48;;;;;;;;;;5036695;28;20463;-71
2021/12/13 14:32:58;;;;;;;17.52;8.30;;;;;;;;;;5036666;28;20033;-71
2021/12/13 14:35:27;;;;;;;14.70;8.77;;;;;;;;;;5035359;28;20025;-71
2021/12/13 14:37:54;;;;;;;18.20;11.02;;;;;;;;;;5036531;28;20082;-70
2021/12/13 14:40:20;;;;;;;16.70;10.10;;;;;;;;;;5036457;28;20029;-73
2021/12/13 14:42:46;;;;;;;19.85;11.32;;;;;;;;;;5036052;28;20478;-71
2021/12/13 14:45:14;;;;;;;19.63;10.77;;;;;;;;;;5036633;28;20481;-71
2021/12/13 14:47:42;;;;;;;16.25;9.18;;;;;;;;;;5036329;28;20470;-71
2021/12/13 14:50:17;;;;;;;26.45;14.05;;;;;;;;;;5034757;28;20022;-71
2021/12/13 14:53:04;;;;;;;18.67;11.32;;;;;;;;;;5036305;28;20500;-72
2021/12/13 14:55:38;;;;;;;14.07;8.32;;;;;;;;;;5035883;28;20100;-71
2021/12/13 14:58:06;;;;;;;12.88;8.25;;;;;;;;;;5036517;28;20029;-72
2021/12/13 15:00:34;;;;;;;13.98;9.05;;;;;;;;;;5036464;28;20042;-71
2021/12/13 15:03:09;;;;;;;11.55;7.40;;;;;;;;;;5035792;28;20025;-71